Terminal Aerodrome Forecast
Issued by NWS North Platte, NE

Home | Current Version | Previous Version | Text Only | Print | Product List | Glossary Off
Versions: 1 2 3 4 5 6 7 8 9 10 11 12 13 14 15

801
FTUS43 KLBF 221720
TAFVTN
TAF
KVTN 221720Z 2218/2318 28014G21KT P6SM SCT050 BKN070
      TEMPO 2218/2221 30016G23KT P6SM -RA BKN050
     FM222100 32014G21KT P6SM VCTS BKN050CB
     FM230200 34010KT P6SM BKN120
     FM231400 33014G20KT P6SM BKN050
     FM231600 33018G26KT P6SM BKN050=

USA.gov is the U.S. government's official web portal to all federal, state and local government web resources and services.